createdAt,value
2018-03-15T00:01:32.233Z,99.90
2018-03-15T00:03:59.797Z,99.90
2018-03-15T00:06:27.360Z,99.90
2018-03-15T00:11:28.717Z,99.90
2018-03-15T00:13:56.651Z,99.90
2018-03-15T00:16:24.204Z,99.90
2018-03-15T00:18:51.768Z,99.90
2018-03-15T00:21:20.949Z,99.90
2018-03-15T00:23:48.513Z,99.90
2018-03-15T00:26:16.086Z,99.90
2018-03-15T00:28:43.654Z,99.90
2018-03-15T00:31:11.213Z,99.90
2018-03-15T00:33:40.754Z,99.90
2018-03-15T00:36:08.856Z,99.90
2018-03-15T00:38:36.882Z,99.90
2018-03-15T00:41:04.450Z,99.90
2018-03-15T00:43:31.995Z,99.90
2018-03-15T00:45:59.569Z,99.90
2018-03-15T00:48:27.109Z,99.90
2018-03-15T00:50:55.498Z,99.90
2018-03-15T00:53:23.065Z,99.90
2018-03-15T00:55:50.870Z,99.90
2018-03-15T00:58:19.088Z,99.90
2018-03-15T01:00:46.673Z,99.90
2018-03-15T01:03:15.187Z,99.90
2018-03-15T01:05:42.770Z,99.90
2018-03-15T01:08:18.026Z,99.90
2018-03-15T01:10:45.609Z,99.90
2018-03-15T01:13:13.148Z,99.90
2018-03-15T01:15:42.270Z,99.90
2018-03-15T01:18:09.851Z,99.90
2018-03-15T01:20:37.401Z,99.90
2018-03-15T01:23:05.724Z,99.90
2018-03-15T01:25:33.268Z,99.90
2018-03-15T01:28:02.741Z,99.90
2018-03-15T01:30:30.290Z,99.90
2018-03-15T01:32:57.849Z,99.90
2018-03-15T01:35:25.388Z,99.90
2018-03-15T01:37:54.333Z,99.90
2018-03-15T01:40:21.878Z,99.90
2018-03-15T01:42:49.492Z,99.90
2018-03-15T01:45:17.637Z,99.90
2018-03-15T01:47:45.489Z,99.90
2018-03-15T01:50:13.836Z,99.90
2018-03-15T01:52:42.897Z,99.90
2018-03-15T01:55:10.466Z,99.90
2018-03-15T01:57:38.769Z,99.90
2018-03-15T02:00:08.213Z,99.90
2018-03-15T02:02:35.768Z,99.90
2018-03-15T02:05:04.992Z,99.90
2018-03-15T02:07:32.538Z,99.90
2018-03-15T02:10:00.101Z,99.90
2018-03-15T02:12:29.990Z,99.90
2018-03-15T02:14:57.570Z,99.90
2018-03-15T02:17:25.108Z,99.90
2018-03-15T02:19:55.675Z,99.90
2018-03-15T02:22:23.249Z,99.90
2018-03-15T02:24:50.803Z,99.90
2018-03-15T02:27:18.382Z,99.90
2018-03-15T02:29:45.919Z,99.90
2018-03-15T02:32:14.973Z,99.90
2018-03-15T02:34:42.518Z,99.90
2018-03-15T02:37:10.077Z,99.90
2018-03-15T02:39:37.622Z,99.90
2018-03-15T02:42:07.009Z,99.90
2018-03-15T02:44:34.549Z,99.90
2018-03-15T02:47:05.346Z,99.90
2018-03-15T02:49:33.661Z,99.90
2018-03-15T02:52:02.793Z,99.90
2018-03-15T02:54:30.346Z,99.90
2018-03-15T02:56:57.886Z,99.90
2018-03-15T02:59:25.459Z,99.90
2018-03-15T03:01:53.014Z,99.90
2018-03-15T03:04:20.578Z,99.90
2018-03-15T03:06:48.117Z,99.90
2018-03-15T03:09:18.098Z,99.90
2018-03-15T03:11:45.639Z,99.90
2018-03-15T03:14:13.197Z,99.90
2018-03-15T03:16:40.732Z,99.90
2018-03-15T03:19:08.293Z,99.90
2018-03-15T03:21:35.831Z,99.90
2018-03-15T03:24:03.390Z,99.90
2018-03-15T03:26:30.927Z,99.90
2018-03-15T03:28:58.508Z,99.90
2018-03-15T03:31:27.109Z,99.90
2018-03-15T03:33:54.649Z,99.90
2018-03-15T03:36:23.692Z,99.90
2018-03-15T03:38:51.234Z,99.90
2018-03-15T03:41:18.793Z,99.90
2018-03-15T03:43:47.400Z,99.90
2018-03-15T03:46:14.966Z,99.90
2018-03-15T03:48:42.513Z,99.90
2018-03-15T03:51:11.537Z,99.90
2018-03-15T03:53:47.218Z,99.90
2018-03-15T03:56:14.783Z,99.90
2018-03-15T03:58:42.338Z,99.90
2018-03-15T04:01:09.902Z,99.90
2018-03-15T04:03:47.119Z,99.90
2018-03-15T04:06:14.673Z,99.90
2018-03-15T04:08:42.213Z,99.90
2018-03-15T04:11:09.778Z,99.90
2018-03-15T04:13:37.325Z,99.90
2018-03-15T04:16:04.910Z,99.90
2018-03-15T04:18:32.454Z,99.90
2018-03-15T04:21:00.000Z,99.90
2018-03-15T04:23:29.364Z,99.90
2018-03-15T04:25:56.900Z,99.90
2018-03-15T04:28:34.230Z,99.90
2018-03-15T04:31:01.778Z,99.90
2018-03-15T04:33:29.350Z,99.90
2018-03-15T04:35:56.917Z,99.90
2018-03-15T04:38:24.479Z,99.90
2018-03-15T04:40:52.788Z,99.90
2018-03-15T04:43:23.298Z,99.90
2018-03-15T04:45:50.841Z,99.90
2018-03-15T04:48:19.750Z,99.90
2018-03-15T04:50:47.294Z,99.90
2018-03-15T04:53:14.848Z,99.90
2018-03-15T04:55:42.426Z,99.90
2018-03-15T04:58:10.005Z,99.90
2018-03-15T05:00:37.634Z,99.90
2018-03-15T05:03:05.945Z,99.90
2018-03-15T05:05:37.122Z,99.90
2018-03-15T05:08:04.679Z,99.90
2018-03-15T05:10:32.242Z,99.90
2018-03-15T05:12:59.793Z,99.90
2018-03-15T05:15:27.352Z,99.90
2018-03-15T05:17:54.892Z,99.90
2018-03-15T05:20:23.566Z,99.90
2018-03-15T05:22:51.108Z,99.90
2018-03-15T05:25:19.778Z,99.90
2018-03-15T05:27:47.325Z,99.90
2018-03-15T05:30:14.856Z,99.90
2018-03-15T05:32:42.441Z,99.90
2018-03-15T05:37:44.108Z,99.90
2018-03-15T05:40:11.706Z,99.90
2018-03-15T05:42:39.265Z,99.90
2018-03-15T05:45:07.583Z,99.90
2018-03-15T05:47:35.142Z,99.90
2018-03-15T05:50:03.445Z,99.90
2018-03-15T05:52:31.007Z,99.90
2018-03-15T05:54:59.312Z,99.90
2018-03-15T05:57:26.872Z,99.90
2018-03-15T05:59:57.721Z,99.90
2018-03-15T06:02:25.294Z,99.90
2018-03-15T06:04:52.843Z,99.90
2018-03-15T06:07:21.156Z,99.90
2018-03-15T06:09:48.712Z,99.90
2018-03-15T06:12:17.951Z,99.90
2018-03-15T06:14:48.122Z,99.90
2018-03-15T06:17:15.702Z,99.90
2018-03-15T06:19:43.262Z,99.90
2018-03-15T06:22:10.814Z,99.90
2018-03-15T06:24:38.377Z,99.90
2018-03-15T06:27:08.079Z,99.90
2018-03-15T06:29:44.001Z,99.90
2018-03-15T06:32:11.546Z,99.90
2018-03-15T06:34:39.109Z,99.90
2018-03-15T06:37:06.652Z,99.90
2018-03-15T06:39:34.252Z,99.90
2018-03-15T06:42:03.454Z,99.90
2018-03-15T06:44:30.999Z,99.90
2018-03-15T06:46:58.571Z,99.90
2018-03-15T06:49:26.881Z,99.90
2018-03-15T06:51:54.441Z,99.90
2018-03-15T06:54:22.709Z,99.90
2018-03-15T06:56:51.022Z,99.90
2018-03-15T06:59:18.586Z,99.90
2018-03-15T07:01:46.950Z,99.90
2018-03-15T07:04:14.496Z,99.90
2018-03-15T07:06:42.047Z,99.90
2018-03-15T07:09:09.576Z,99.90
2018-03-15T07:11:38.896Z,99.90
2018-03-15T07:14:06.490Z,99.90
2018-03-15T07:16:34.057Z,99.90
2018-03-15T07:19:02.357Z,99.90
2018-03-15T07:21:31.050Z,99.90
2018-03-15T07:23:59.361Z,99.90
2018-03-15T07:26:28.762Z,99.90
2018-03-15T07:28:56.311Z,99.90
2018-03-15T07:31:24.639Z,99.90
2018-03-15T07:33:52.171Z,99.90
2018-03-15T07:36:21.470Z,99.90
2018-03-15T07:38:49.031Z,99.90
2018-03-15T07:41:17.021Z,99.90
2018-03-15T07:43:44.584Z,99.90
2018-03-15T07:46:12.157Z,99.90
2018-03-15T07:48:39.721Z,99.90
2018-03-15T07:51:08.972Z,99.90
2018-03-15T07:53:36.542Z,99.90
2018-03-15T07:56:04.856Z,99.90
2018-03-15T07:58:32.421Z,99.90
2018-03-15T08:01:01.497Z,99.90
2018-03-15T08:03:29.086Z,99.90
2018-03-15T08:05:57.409Z,99.90
2018-03-15T08:08:25.027Z,99.90
2018-03-15T08:10:52.565Z,99.90
2018-03-15T08:13:20.106Z,99.90
2018-03-15T08:15:47.686Z,99.90
2018-03-15T08:18:15.230Z,99.90
2018-03-15T08:20:42.781Z,99.90
2018-03-15T08:23:10.321Z,99.90
2018-03-15T08:25:37.872Z,99.90
2018-03-15T08:28:08.248Z,99.90
2018-03-15T08:30:35.806Z,99.90
2018-03-15T08:33:05.616Z,99.90
2018-03-15T08:35:33.191Z,99.90
2018-03-15T08:38:00.728Z,99.90
2018-03-15T08:40:30.236Z,99.90
2018-03-15T08:42:57.786Z,99.90
2018-03-15T08:45:25.345Z,99.90
2018-03-15T08:47:52.896Z,99.90
2018-03-15T08:50:20.448Z,99.90
2018-03-15T08:52:48.689Z,99.90
2018-03-15T08:55:16.252Z,99.90
2018-03-15T08:57:43.787Z,99.90
2018-03-15T09:00:11.391Z,99.90
2018-03-15T09:02:38.908Z,99.90
2018-03-15T09:05:07.212Z,99.90
2018-03-15T09:07:35.046Z,99.90
2018-03-15T09:10:02.653Z,99.90
2018-03-15T09:12:30.222Z,99.90
2018-03-15T09:14:57.781Z,99.90
2018-03-15T09:17:26.104Z,99.90
2018-03-15T09:19:53.647Z,99.90
2018-03-15T09:22:21.955Z,99.90
2018-03-15T09:24:49.501Z,99.90
2018-03-15T09:27:17.956Z,99.90
2018-03-15T09:29:45.540Z,99.90
2018-03-15T09:32:13.867Z,99.90
2018-03-15T09:34:41.427Z,99.30
2018-03-15T09:37:09.019Z,99.90
2018-03-15T09:39:36.571Z,99.80
2018-03-15T09:42:05.069Z,99.90
2018-03-15T09:44:32.674Z,99.90
2018-03-15T09:47:00.240Z,99.70
2018-03-15T09:49:27.819Z,99.40
2018-03-15T09:51:55.372Z,99.80
2018-03-15T09:54:22.969Z,99.20
2018-03-15T09:56:50.550Z,99.10
2018-03-15T09:59:18.124Z,99.10
2018-03-15T10:01:45.737Z,98.90
2018-03-15T10:04:13.320Z,99.00
2018-03-15T10:06:40.868Z,98.70
2018-03-15T10:09:09.213Z,99.60
2018-03-15T10:11:38.583Z,99.60
2018-03-15T10:14:06.165Z,98.90
2018-03-15T10:16:33.724Z,98.50
2018-03-15T10:19:02.048Z,98.90
2018-03-15T10:21:29.607Z,98.80
2018-03-15T10:23:57.173Z,99.50
2018-03-15T10:26:24.752Z,98.90
2018-03-15T10:28:52.316Z,98.90
2018-03-15T10:31:19.897Z,98.80
2018-03-15T10:33:48.817Z,99.10
2018-03-15T10:36:16.405Z,99.40
2018-03-15T10:38:44.742Z,99.60
2018-03-15T10:41:12.371Z,99.30
2018-03-15T10:43:39.936Z,99.50
2018-03-15T10:46:07.542Z,99.20
2018-03-15T10:48:35.895Z,99.40
2018-03-15T10:51:03.505Z,99.40
2018-03-15T10:53:31.827Z,99.70
2018-03-15T10:55:59.421Z,99.70
2018-03-15T10:58:27.075Z,99.70
2018-03-15T11:01:00.208Z,99.50
2018-03-15T11:03:33.436Z,99.50
2018-03-15T11:06:06.555Z,99.00
2018-03-15T11:08:35.779Z,98.80
2018-03-15T11:11:12.071Z,98.80
2018-03-15T11:13:39.635Z,97.80
2018-03-15T11:16:07.216Z,97.70
2018-03-15T11:18:34.802Z,97.50
2018-03-15T11:21:02.400Z,97.00
2018-03-15T11:23:29.963Z,96.60
2018-03-15T11:25:57.518Z,96.70
2018-03-15T11:28:25.092Z,97.40
2018-03-15T11:30:52.641Z,96.00
2018-03-15T11:33:20.228Z,96.80
2018-03-15T11:35:47.797Z,96.70
2018-03-15T11:38:15.386Z,96.10
2018-03-15T11:40:42.932Z,96.70
2018-03-15T11:43:10.514Z,95.90
2018-03-15T11:45:38.077Z,96.30
2018-03-15T11:48:05.656Z,96.70
2018-03-15T11:50:33.207Z,95.30
2018-03-15T11:53:01.548Z,95.40
2018-03-15T11:55:29.113Z,95.40
2018-03-15T11:57:57.253Z,95.60
2018-03-15T12:00:24.821Z,96.00
2018-03-15T12:02:53.157Z,96.50
2018-03-15T12:05:20.720Z,96.50
2018-03-15T12:07:48.320Z,96.90
2018-03-15T12:10:16.097Z,97.00
2018-03-15T12:12:43.665Z,97.80
2018-03-15T12:15:12.016Z,98.10
2018-03-15T12:17:39.573Z,98.10
2018-03-15T12:20:07.900Z,97.80
2018-03-15T12:22:35.444Z,97.80
2018-03-15T12:25:03.000Z,97.10
2018-03-15T12:27:31.305Z,97.20
2018-03-15T12:29:59.634Z,97.30
2018-03-15T12:32:27.185Z,97.30
2018-03-15T12:34:54.797Z,97.60
2018-03-15T12:37:22.369Z,97.70
2018-03-15T12:39:49.929Z,97.40
2018-03-15T12:42:17.481Z,97.70
2018-03-15T12:44:45.032Z,97.80
2018-03-15T12:47:13.337Z,97.90
2018-03-15T12:49:40.898Z,97.90
2018-03-15T12:52:08.444Z,97.70
2018-03-15T12:54:35.991Z,97.60
2018-03-15T12:57:03.563Z,97.60
2018-03-15T12:59:31.104Z,98.50
2018-03-15T13:01:58.661Z,97.70
2018-03-15T13:04:26.200Z,98.00
2018-03-15T13:06:53.755Z,97.90
2018-03-15T13:09:21.313Z,98.40
2018-03-15T13:11:48.896Z,98.20
2018-03-15T13:14:16.436Z,97.40
2018-03-15T13:16:43.989Z,97.40
2018-03-15T13:19:11.537Z,97.40
2018-03-15T13:21:39.856Z,97.50
2018-03-15T13:24:07.412Z,97.50
2018-03-15T13:26:35.743Z,97.80
2018-03-15T13:29:03.279Z,97.80
2018-03-15T13:31:30.837Z,97.90
2018-03-15T13:33:59.145Z,97.60
2018-03-15T13:36:26.694Z,97.50
2018-03-15T13:38:55.029Z,97.80
2018-03-15T13:41:24.097Z,97.80
2018-03-15T13:43:52.445Z,97.70
2018-03-15T13:46:19.996Z,97.70
2018-03-15T13:48:48.069Z,97.70
2018-03-15T13:51:15.614Z,98.10
2018-03-15T13:53:43.961Z,97.00
2018-03-15T13:56:11.515Z,96.90
2018-03-15T13:58:39.081Z,97.20
2018-03-15T14:01:06.619Z,97.40
2018-03-15T14:03:34.945Z,96.90
2018-03-15T14:06:02.503Z,96.90
2018-03-15T14:08:30.055Z,96.90
2018-03-15T14:10:57.620Z,95.60
2018-03-15T14:13:26.846Z,95.30
2018-03-15T14:15:55.153Z,95.40
2018-03-15T14:18:22.736Z,95.40
2018-03-15T14:20:50.280Z,95.50
2018-03-15T14:23:18.596Z,95.20
2018-03-15T14:25:46.155Z,95.20
2018-03-15T14:28:13.738Z,95.20
2018-03-15T14:30:41.298Z,95.50
2018-03-15T14:33:08.841Z,95.80
2018-03-15T14:35:37.165Z,95.90
2018-03-15T14:38:04.726Z,95.90
2018-03-15T14:40:32.293Z,96.00
2018-03-15T14:42:59.851Z,94.90
2018-03-15T14:45:28.163Z,95.80
2018-03-15T14:47:55.701Z,95.80
2018-03-15T14:50:24.027Z,96.30
2018-03-15T14:52:51.566Z,96.30
2018-03-15T14:55:19.160Z,96.10
2018-03-15T14:57:46.695Z,96.30
2018-03-15T15:00:14.256Z,96.40
2018-03-15T15:02:41.795Z,96.60
2018-03-15T15:05:09.376Z,96.90
2018-03-15T15:07:36.950Z,96.70
2018-03-15T15:10:04.503Z,97.10
2018-03-15T15:12:32.051Z,97.20
2018-03-15T15:15:00.358Z,96.80
2018-03-15T15:17:27.922Z,96.80
2018-03-15T15:19:55.456Z,96.70
2018-03-15T15:22:23.008Z,96.90
2018-03-15T15:24:50.541Z,96.80
2018-03-15T15:27:18.883Z,96.70
2018-03-15T15:29:46.425Z,96.70
2018-03-15T15:32:14.915Z,96.70
2018-03-15T15:34:42.528Z,97.10
2018-03-15T15:37:10.084Z,96.70
2018-03-15T15:39:37.624Z,97.20
2018-03-15T15:42:05.185Z,97.40
2018-03-15T15:44:32.720Z,96.90
2018-03-15T15:47:00.281Z,96.80
2018-03-15T15:49:27.826Z,96.40
2018-03-15T15:51:55.376Z,96.60
2018-03-15T15:54:22.913Z,97.20
2018-03-15T15:56:50.489Z,97.00
2018-03-15T15:59:18.034Z,96.90
2018-03-15T16:01:45.578Z,97.00
2018-03-15T16:04:13.146Z,96.60
2018-03-15T16:06:40.675Z,96.20
2018-03-15T16:09:08.457Z,96.10
2018-03-15T16:11:36.765Z,95.90
2018-03-15T16:14:04.339Z,95.90
2018-03-15T16:16:31.875Z,95.90
2018-03-15T16:18:59.433Z,95.70
2018-03-15T16:21:26.969Z,95.30
2018-03-15T16:23:54.550Z,95.30
2018-03-15T16:26:22.086Z,95.10
2018-03-15T16:28:50.405Z,95.20
2018-03-15T16:31:17.990Z,95.20
2018-03-15T16:33:45.519Z,95.10
2018-03-15T16:36:13.080Z,94.80
2018-03-15T16:38:41.405Z,95.10
2018-03-15T16:41:08.936Z,95.10
2018-03-15T16:43:36.508Z,95.40
2018-03-15T16:46:04.820Z,95.30
2018-03-15T16:48:33.133Z,95.70
2018-03-15T16:51:00.678Z,95.70
2018-03-15T16:53:29.002Z,95.90
2018-03-15T16:55:57.317Z,95.90
2018-03-15T16:58:24.885Z,95.90
2018-03-15T17:00:52.465Z,95.80
2018-03-15T17:03:19.996Z,94.90
2018-03-15T17:05:47.564Z,94.90
2018-03-15T17:08:15.091Z,95.00
2018-03-15T17:10:42.631Z,95.10
2018-03-15T17:13:10.172Z,95.10
2018-03-15T17:15:37.723Z,95.40
2018-03-15T17:18:06.019Z,95.90
2018-03-15T17:20:34.340Z,96.00
2018-03-15T17:23:01.884Z,96.00
2018-03-15T17:25:29.440Z,96.30
2018-03-15T17:27:57.750Z,96.70
2018-03-15T17:30:25.312Z,96.70
2018-03-15T17:32:52.880Z,97.10
2018-03-15T17:35:21.209Z,97.00
2018-03-15T17:37:48.745Z,97.00
2018-03-15T17:40:17.076Z,97.10
2018-03-15T17:42:44.677Z,97.10
2018-03-15T17:45:12.191Z,97.30
2018-03-15T17:47:39.778Z,97.40
2018-03-15T17:50:07.340Z,97.80
2018-03-15T17:52:34.901Z,97.60
2018-03-15T17:55:02.449Z,97.60
2018-03-15T17:57:30.023Z,97.50
2018-03-15T17:59:58.394Z,97.90
2018-03-15T18:02:25.944Z,97.80
2018-03-15T18:04:53.494Z,98.00
2018-03-15T18:07:21.048Z,98.10
2018-03-15T18:09:49.348Z,98.00
2018-03-15T18:12:16.922Z,97.70
2018-03-15T18:14:44.461Z,97.80
2018-03-15T18:17:12.027Z,97.90
2018-03-15T18:19:39.551Z,98.00
2018-03-15T18:22:07.083Z,98.00
2018-03-15T18:24:34.636Z,97.80
2018-03-15T18:27:02.174Z,98.00
2018-03-15T18:29:29.732Z,98.20
2018-03-15T18:31:57.329Z,98.20
2018-03-15T18:34:24.905Z,98.50
2018-03-15T18:36:52.472Z,98.60
2018-03-15T18:39:20.057Z,98.60
2018-03-15T18:41:47.599Z,98.90
2018-03-15T18:44:16.485Z,99.00
2018-03-15T18:46:44.790Z,99.00
2018-03-15T18:49:12.339Z,99.10
2018-03-15T18:51:40.682Z,99.10
2018-03-15T18:54:08.249Z,99.30
2018-03-15T18:56:35.800Z,99.30
2018-03-15T18:59:03.384Z,99.40
2018-03-15T19:01:30.911Z,99.50
2018-03-15T19:03:58.477Z,99.60
2018-03-15T19:06:26.017Z,99.70
2018-03-15T19:08:56.283Z,99.90
2018-03-15T19:11:23.874Z,99.90
2018-03-15T19:13:52.183Z,99.90
2018-03-15T19:16:19.815Z,99.90
2018-03-15T19:18:48.163Z,99.90
2018-03-15T19:21:15.721Z,99.90
2018-03-15T19:23:43.265Z,99.90
2018-03-15T19:26:11.583Z,99.90
2018-03-15T19:28:39.126Z,99.90
2018-03-15T19:31:07.453Z,99.90
2018-03-15T19:33:34.988Z,99.90
2018-03-15T19:36:03.306Z,99.90
2018-03-15T19:38:30.853Z,99.90
2018-03-15T19:40:59.240Z,99.90
2018-03-15T19:43:27.541Z,99.90
2018-03-15T19:45:55.111Z,99.90
2018-03-15T19:48:22.692Z,99.90
2018-03-15T19:50:50.233Z,99.90
2018-03-15T19:53:17.826Z,99.90
2018-03-15T19:55:45.363Z,99.90
2018-03-15T19:58:12.928Z,99.90
2018-03-15T20:00:40.464Z,99.90
2018-03-15T20:03:08.017Z,99.90
2018-03-15T20:05:35.557Z,99.90
2018-03-15T20:08:03.154Z,99.90
2018-03-15T20:10:30.704Z,99.90
2018-03-15T20:12:58.267Z,99.90
2018-03-15T20:15:26.264Z,99.90
2018-03-15T20:17:54.577Z,99.90
2018-03-15T20:20:22.145Z,99.90
2018-03-15T20:26:00.721Z,99.90
2018-03-15T20:28:34.033Z,99.90
2018-03-15T20:31:01.616Z,99.90
2018-03-15T20:33:34.901Z,99.90
2018-03-15T20:36:02.421Z,99.90
2018-03-15T20:38:29.964Z,99.90
2018-03-15T20:41:03.171Z,99.90
2018-03-15T20:43:30.722Z,99.90
2018-03-15T20:46:03.890Z,99.90
2018-03-15T20:48:37.120Z,99.90
2018-03-15T20:51:04.680Z,99.90
2018-03-15T20:53:33.037Z,99.90
2018-03-15T20:56:00.633Z,99.90
2018-03-15T20:58:28.232Z,99.90
2018-03-15T21:00:55.809Z,99.90
2018-03-15T21:03:23.392Z,99.90
2018-03-15T21:05:50.957Z,99.90
2018-03-15T21:08:19.465Z,99.90
2018-03-15T21:10:47.003Z,99.90
2018-03-15T21:13:14.586Z,99.90
2018-03-15T21:15:42.134Z,99.90
2018-03-15T21:18:10.477Z,99.90
2018-03-15T21:20:38.025Z,99.90
2018-03-15T21:23:05.605Z,99.90
2018-03-15T21:25:33.180Z,99.90
2018-03-15T21:30:34.311Z,99.90
2018-03-15T21:33:01.884Z,99.90
2018-03-15T21:35:29.439Z,99.90
2018-03-15T21:37:57.053Z,99.90
2018-03-15T21:40:24.605Z,99.90
2018-03-15T21:42:52.173Z,99.90
2018-03-15T21:45:19.726Z,99.90
2018-03-15T21:47:47.290Z,99.90
2018-03-15T21:50:14.834Z,99.90
2018-03-15T21:52:42.414Z,99.90
2018-03-15T21:55:09.956Z,99.90
2018-03-15T21:57:37.502Z,99.90
2018-03-15T22:00:05.829Z,99.90
2018-03-15T22:02:33.376Z,99.90
2018-03-15T22:05:00.954Z,99.90
2018-03-15T22:07:29.266Z,99.90
2018-03-15T22:09:56.870Z,99.90
2018-03-15T22:12:24.464Z,99.90
2018-03-15T22:17:25.834Z,99.90
2018-03-15T22:19:53.439Z,99.90
2018-03-15T22:22:21.747Z,99.90
2018-03-15T22:24:49.339Z,99.90
2018-03-15T22:27:16.884Z,99.90
2018-03-15T22:29:45.356Z,99.90
2018-03-15T22:32:12.920Z,99.90
2018-03-15T22:34:40.477Z,99.90
2018-03-15T22:37:08.045Z,99.90
2018-03-15T22:39:35.598Z,99.90
2018-03-15T22:42:03.182Z,99.90
2018-03-15T22:44:30.722Z,99.90
2018-03-15T22:46:58.280Z,99.90
2018-03-15T22:49:26.854Z,99.90
2018-03-15T22:51:54.532Z,99.90
2018-03-15T22:54:22.853Z,99.90
2018-03-15T22:56:50.419Z,99.90
2018-03-15T22:59:17.961Z,99.90
2018-03-15T23:01:45.529Z,99.90
2018-03-15T23:04:13.075Z,99.90
2018-03-15T23:06:41.412Z,99.90
2018-03-15T23:09:09.726Z,99.90
2018-03-15T23:11:37.275Z,99.90
2018-03-15T23:14:05.602Z,99.90
2018-03-15T23:16:33.144Z,99.90
2018-03-15T23:19:00.696Z,99.90
2018-03-15T23:21:29.002Z,99.90
2018-03-15T23:23:56.559Z,99.90
2018-03-15T23:26:25.785Z,99.90
2018-03-15T23:28:53.345Z,99.90
2018-03-15T23:31:21.666Z,99.90
2018-03-15T23:33:49.253Z,99.90
2018-03-15T23:36:16.822Z,99.90
2018-03-15T23:38:44.364Z,99.90
2018-03-15T23:41:11.920Z,99.90
2018-03-15T23:43:40.230Z,99.90
2018-03-15T23:46:08.109Z,99.90
2018-03-15T23:48:35.669Z,99.90
2018-03-15T23:51:03.988Z,99.90
2018-03-15T23:53:31.528Z,99.90
2018-03-15T23:55:59.865Z,99.70
2018-03-15T23:58:27.431Z,99.60
